createdAt,value
2023-04-18T00:00:24.861Z,100.00
2023-04-18T00:02:53.976Z,100.00
2023-04-18T00:05:21.364Z,100.00
2023-04-18T00:07:48.558Z,100.00
2023-04-18T00:10:15.508Z,100.00
2023-04-18T00:12:42.908Z,100.00
2023-04-18T00:15:10.067Z,100.00
2023-04-18T00:17:39.714Z,100.00
2023-04-18T00:20:10.400Z,100.00
2023-04-18T00:22:42.731Z,100.00
2023-04-18T00:25:11.015Z,100.00
2023-04-18T00:27:41.405Z,100.00
2023-04-18T00:30:08.979Z,100.00
2023-04-18T00:32:37.283Z,100.00
2023-04-18T00:35:04.172Z,100.00
2023-04-18T00:37:30.589Z,100.00
2023-04-18T00:39:57.007Z,100.00
2023-04-18T00:42:25.433Z,100.00
2023-04-18T00:44:51.849Z,100.00
2023-04-18T00:47:18.281Z,100.00
2023-04-18T00:49:45.518Z,100.00
2023-04-18T00:52:12.576Z,100.00
2023-04-18T00:54:41.370Z,100.00
2023-04-18T00:57:08.050Z,100.00
2023-04-18T00:59:35.548Z,100.00
2023-04-18T01:02:03.872Z,100.00
2023-04-18T01:04:32.618Z,100.00
2023-04-18T01:07:00.924Z,100.00
2023-04-18T01:09:28.948Z,100.00
2023-04-18T01:11:55.382Z,100.00
2023-04-18T01:14:21.951Z,100.00
2023-04-18T01:16:51.277Z,100.00
2023-04-18T01:19:19.145Z,100.00
2023-04-18T01:21:45.860Z,100.00
2023-04-18T01:24:15.787Z,100.00
2023-04-18T01:26:44.788Z,100.00
2023-04-18T01:29:11.751Z,100.00
2023-04-18T01:31:39.280Z,100.00
2023-04-18T01:34:07.351Z,100.00
2023-04-18T01:36:34.850Z,100.00
2023-04-18T01:39:01.986Z,100.00
2023-04-18T01:41:32.232Z,100.00
2023-04-18T01:43:59.318Z,100.00
2023-04-18T01:46:26.215Z,100.00
2023-04-18T01:48:53.571Z,100.00
2023-04-18T01:51:20.757Z,100.00
2023-04-18T01:53:47.160Z,100.00
2023-04-18T01:56:13.608Z,100.00
2023-04-18T01:58:41.567Z,100.00
2023-04-18T02:01:08.154Z,100.00
2023-04-18T02:03:34.852Z,100.00
2023-04-18T02:06:02.695Z,100.00
2023-04-18T02:08:30.748Z,100.00
2023-04-18T02:10:57.167Z,100.00
2023-04-18T02:13:23.575Z,100.00
2023-04-18T02:15:49.972Z,100.00
2023-04-18T02:18:17.347Z,100.00
2023-04-18T02:20:45.169Z,100.00
2023-04-18T02:23:11.664Z,100.00
2023-04-18T02:25:38.063Z,100.00
2023-04-18T02:28:04.561Z,100.00
2023-04-18T02:30:31.339Z,100.00
2023-04-18T02:32:57.741Z,100.00
2023-04-18T02:35:25.202Z,100.00
2023-04-18T02:37:51.670Z,100.00
2023-04-18T02:40:18.750Z,100.00
2023-04-18T02:42:45.553Z,100.00
2023-04-18T02:45:14.706Z,100.00
2023-04-18T02:47:51.789Z,100.00
2023-04-18T02:50:22.489Z,100.00
2023-04-18T02:52:49.032Z,100.00
2023-04-18T02:55:17.467Z,100.00
2023-04-18T02:57:44.814Z,100.00
2023-04-18T03:00:29.750Z,100.00
2023-04-18T03:08:13.505Z,100.00
2023-04-18T03:10:40.682Z,100.00
2023-04-18T03:13:07.706Z,100.00
2023-04-18T03:15:34.318Z,100.00
2023-04-18T03:18:00.932Z,100.00
2023-04-18T03:20:31.315Z,100.00
2023-04-18T03:22:57.739Z,100.00
2023-04-18T03:25:26.138Z,100.00
2023-04-18T03:27:53.265Z,100.00
2023-04-18T03:30:21.686Z,100.00
2023-04-18T03:32:53.709Z,100.00
2023-04-18T03:35:20.198Z,100.00
2023-04-18T03:37:46.599Z,100.00
2023-04-18T03:40:19.993Z,100.00
2023-04-18T03:42:48.690Z,100.00
2023-04-18T03:45:15.678Z,100.00
2023-04-18T03:47:44.093Z,100.00
2023-04-18T03:50:10.785Z,100.00
2023-04-18T03:52:38.528Z,100.00
2023-04-18T03:55:05.667Z,100.00
2023-04-18T03:57:33.680Z,100.00
2023-04-18T04:00:02.308Z,100.00
2023-04-18T04:02:42.231Z,100.00
2023-04-18T04:05:11.488Z,100.00
2023-04-18T04:07:38.283Z,100.00
2023-04-18T04:10:06.072Z,100.00
2023-04-18T04:12:32.527Z,100.00
2023-04-18T04:14:59.168Z,100.00
2023-04-18T04:17:25.886Z,100.00
2023-04-18T04:19:52.683Z,100.00
2023-04-18T04:22:20.407Z,100.00
2023-04-18T04:24:47.502Z,100.00
2023-04-18T04:27:18.790Z,100.00
2023-04-18T04:29:49.636Z,100.00
2023-04-18T04:32:18.762Z,100.00
2023-04-18T04:34:46.323Z,100.00
2023-04-18T04:37:19.631Z,100.00
2023-04-18T04:40:00.765Z,100.00
2023-04-18T04:42:41.083Z,100.00
2023-04-18T04:45:13.792Z,100.00
2023-04-18T04:47:40.253Z,100.00
2023-04-18T04:50:11.643Z,100.00
2023-04-18T04:52:40.110Z,100.00
2023-04-18T04:55:07.106Z,100.00
2023-04-18T04:57:33.877Z,100.00
2023-04-18T05:00:01.724Z,100.00
2023-04-18T05:02:28.326Z,100.00
2023-04-18T05:04:54.984Z,100.00
2023-04-18T05:07:21.855Z,100.00
2023-04-18T05:09:48.248Z,100.00
2023-04-18T05:12:14.657Z,100.00
2023-04-18T05:14:41.077Z,100.00
2023-04-18T05:17:07.744Z,100.00
2023-04-18T05:19:34.169Z,100.00
2023-04-18T05:22:00.714Z,100.00
2023-04-18T05:24:27.144Z,100.00
2023-04-18T05:26:53.639Z,100.00
2023-04-18T05:29:20.327Z,100.00
2023-04-18T05:31:46.730Z,100.00
2023-04-18T05:34:13.345Z,100.00
2023-04-18T05:36:40.185Z,100.00
2023-04-18T05:39:06.637Z,100.00
2023-04-18T05:41:33.124Z,98.72
2023-04-18T05:44:05.421Z,98.46
2023-04-18T05:46:43.629Z,97.30
2023-04-18T05:49:10.056Z,97.04
2023-04-18T05:51:36.508Z,96.83
2023-04-18T05:54:02.987Z,96.74
2023-04-18T05:56:29.497Z,95.37
2023-04-18T05:58:56.107Z,94.21
2023-04-18T06:01:22.891Z,93.11
2023-04-18T06:03:49.514Z,93.98
2023-04-18T06:06:16.174Z,93.18
2023-04-18T06:08:42.570Z,92.13
2023-04-18T06:11:09.075Z,91.72
2023-04-18T06:13:36.695Z,91.92
2023-04-18T06:16:03.897Z,90.26
2023-04-18T06:18:30.326Z,89.88
2023-04-18T06:20:56.727Z,89.88
2023-04-18T06:23:23.133Z,89.05
2023-04-18T06:25:49.613Z,89.30
2023-04-18T06:28:16.123Z,88.97
2023-04-18T06:30:42.579Z,88.47
2023-04-18T06:33:11.890Z,87.68
2023-04-18T06:35:38.592Z,87.59
2023-04-18T06:38:05.009Z,88.70
2023-04-18T06:40:31.498Z,87.41
2023-04-18T06:42:57.887Z,87.40
2023-04-18T06:45:24.345Z,88.23
2023-04-18T06:47:51.448Z,88.24
2023-04-18T06:50:17.894Z,87.91
2023-04-18T06:52:45.534Z,89.93
2023-04-18T06:55:13.526Z,89.12
2023-04-18T06:57:41.756Z,89.30
2023-04-18T07:00:10.072Z,89.82
2023-04-18T07:02:40.022Z,91.23
2023-04-18T07:05:07.293Z,90.81
2023-04-18T07:07:34.546Z,92.10
2023-04-18T07:10:01.496Z,91.20
2023-04-18T07:12:27.941Z,92.04
2023-04-18T07:14:54.776Z,92.00
2023-04-18T07:17:21.367Z,91.47
2023-04-18T07:19:47.842Z,91.84
2023-04-18T07:22:14.245Z,93.21
2023-04-18T07:24:40.678Z,92.20
2023-04-18T07:27:07.526Z,91.83
2023-04-18T07:29:33.921Z,93.26
2023-04-18T07:32:00.359Z,92.71
2023-04-18T07:34:29.821Z,92.02
2023-04-18T07:36:59.165Z,92.20
2023-04-18T07:39:25.584Z,90.32
2023-04-18T07:41:51.980Z,90.27
2023-04-18T07:44:18.534Z,88.65
2023-04-18T07:46:45.012Z,87.83
2023-04-18T07:49:11.663Z,86.33
2023-04-18T07:51:38.196Z,88.20
2023-04-18T07:54:04.778Z,85.22
2023-04-18T07:56:31.221Z,86.41
2023-04-18T07:58:57.650Z,85.20
2023-04-18T08:01:24.797Z,84.72
2023-04-18T08:03:53.171Z,84.44
2023-04-18T08:06:19.801Z,84.81
2023-04-18T08:08:46.382Z,85.26
2023-04-18T08:11:12.926Z,84.61
2023-04-18T08:13:39.330Z,84.04
2023-04-18T08:16:05.979Z,84.13
2023-04-18T08:18:32.374Z,83.17
2023-04-18T08:20:58.790Z,82.80
2023-04-18T08:23:25.317Z,83.27
2023-04-18T08:25:51.714Z,82.61
2023-04-18T08:28:18.141Z,81.78
2023-04-18T08:30:48.647Z,83.18
2023-04-18T08:33:15.676Z,83.79
2023-04-18T08:35:42.964Z,83.13
2023-04-18T08:38:09.497Z,83.66
2023-04-18T08:40:37.141Z,83.32
2023-04-18T08:43:09.144Z,84.24
2023-04-18T08:45:36.768Z,83.51
2023-04-18T08:48:03.915Z,83.52
2023-04-18T08:50:30.832Z,84.52
2023-04-18T08:52:59.682Z,84.43
2023-04-18T08:55:26.315Z,83.34
2023-04-18T08:57:55.374Z,84.29
2023-04-18T09:00:22.766Z,84.41
2023-04-18T09:02:49.493Z,83.96
2023-04-18T09:05:19.468Z,86.37
2023-04-18T09:07:47.672Z,85.66
2023-04-18T09:10:25.066Z,86.31
2023-04-18T09:12:52.110Z,87.00
2023-04-18T09:15:23.468Z,87.43
2023-04-18T09:17:56.070Z,87.40
2023-04-18T09:20:35.154Z,87.18
2023-04-18T09:23:06.336Z,87.03
2023-04-18T09:25:44.991Z,87.45
2023-04-18T09:28:33.059Z,88.23
2023-04-18T09:31:12.107Z,87.73
2023-04-18T09:33:43.044Z,87.73
2023-04-18T09:36:29.227Z,87.17
2023-04-18T09:38:56.884Z,87.34
2023-04-18T09:41:24.164Z,88.11
2023-04-18T09:44:07.568Z,88.27
2023-04-18T09:46:34.020Z,89.14
2023-04-18T09:49:00.978Z,89.50
2023-04-18T09:51:28.498Z,88.93
2023-04-18T09:53:55.219Z,89.28
2023-04-18T09:56:27.100Z,89.33
2023-04-18T09:59:03.154Z,88.24
2023-04-18T10:01:30.774Z,88.44
2023-04-18T10:04:01.363Z,87.69
2023-04-18T10:06:28.549Z,87.49
2023-04-18T10:08:55.825Z,86.89
2023-04-18T10:11:24.139Z,87.26
2023-04-18T10:13:55.751Z,85.76
2023-04-18T10:16:22.575Z,85.89
2023-04-18T10:18:50.209Z,85.73
2023-04-18T10:21:16.713Z,86.22
2023-04-18T10:23:43.247Z,85.33
2023-04-18T10:26:10.877Z,85.50
2023-04-18T10:28:57.493Z,84.71
2023-04-18T10:31:26.349Z,84.06
2023-04-18T10:36:30.125Z,84.28
2023-04-18T10:39:03.466Z,83.59
2023-04-18T10:41:31.875Z,83.65
2023-04-18T10:44:08.388Z,83.44
2023-04-18T10:47:01.568Z,83.64
2023-04-18T10:49:32.072Z,83.12
2023-04-18T10:52:01.309Z,83.11
2023-04-18T10:54:47.674Z,82.80
2023-04-18T10:57:15.217Z,83.56
2023-04-18T10:59:43.361Z,83.69
2023-04-18T11:02:21.220Z,83.00
2023-04-18T11:04:54.715Z,83.56
2023-04-18T11:07:40.906Z,82.55
2023-04-18T11:10:09.210Z,82.98
2023-04-18T11:12:37.650Z,82.70
2023-04-18T11:15:11.189Z,82.98
2023-04-18T11:17:40.162Z,82.90
2023-04-18T11:20:12.772Z,83.08
2023-04-18T11:22:47.751Z,80.96
2023-04-18T11:25:15.322Z,81.26
2023-04-18T11:27:46.951Z,80.66
2023-04-18T11:30:15.238Z,81.04
2023-04-18T11:32:42.035Z,81.57
2023-04-18T11:35:10.360Z,81.46
2023-04-18T11:37:38.560Z,81.15
2023-04-18T11:40:08.852Z,80.91
2023-04-18T11:42:37.314Z,81.46
2023-04-18T11:45:04.087Z,80.74
2023-04-18T11:47:33.869Z,80.41
2023-04-18T11:50:08.270Z,80.59
2023-04-18T11:52:36.356Z,80.47
2023-04-18T11:55:18.272Z,79.89
2023-04-18T11:57:55.217Z,79.87
2023-04-18T12:00:38.918Z,79.94
2023-04-18T12:03:12.676Z,80.26
2023-04-18T12:05:41.009Z,80.45
2023-04-18T12:08:20.637Z,81.36
2023-04-18T12:10:48.713Z,80.19
2023-04-18T12:13:15.139Z,80.05
2023-04-18T12:15:44.387Z,80.28
2023-04-18T12:18:16.944Z,79.93
2023-04-18T12:20:49.998Z,81.01
2023-04-18T12:23:32.437Z,81.10
2023-04-18T12:26:03.830Z,80.32
2023-04-18T12:28:31.518Z,80.15
2023-04-18T12:30:58.002Z,79.63
2023-04-18T12:33:24.440Z,79.89
2023-04-18T12:35:52.591Z,78.98
2023-04-18T12:38:23.370Z,78.90
2023-04-18T12:40:51.679Z,80.10
2023-04-18T12:43:18.822Z,80.10
2023-04-18T12:45:46.236Z,80.96
2023-04-18T12:48:12.780Z,78.93
2023-04-18T12:50:39.233Z,79.13
2023-04-18T12:53:06.131Z,80.36
2023-04-18T12:55:32.738Z,79.49
2023-04-18T12:57:59.152Z,79.33
2023-04-18T13:00:27.860Z,79.43
2023-04-18T13:02:54.362Z,80.02
2023-04-18T13:05:24.247Z,79.90
2023-04-18T13:07:56.291Z,79.13
2023-04-18T13:10:28.418Z,79.93
2023-04-18T13:12:54.847Z,80.07
2023-04-18T13:15:23.752Z,79.79
2023-04-18T13:17:50.292Z,79.94
2023-04-18T13:20:17.084Z,80.61
2023-04-18T13:22:43.686Z,79.69
2023-04-18T13:25:10.795Z,80.63
2023-04-18T13:27:40.886Z,79.66
2023-04-18T13:30:10.367Z,79.39
2023-04-18T13:32:37.562Z,79.15
2023-04-18T13:35:04.447Z,80.45
2023-04-18T13:37:31.196Z,79.28
2023-04-18T13:39:57.853Z,79.18
2023-04-18T13:42:24.249Z,78.82
2023-04-18T13:44:50.719Z,79.08
2023-04-18T13:47:17.212Z,78.86
2023-04-18T13:49:43.612Z,78.39
2023-04-18T13:52:10.005Z,79.05
2023-04-18T13:54:37.554Z,78.61
2023-04-18T13:57:04.135Z,78.13
2023-04-18T13:59:32.267Z,78.94
2023-04-18T14:01:58.931Z,78.84
2023-04-18T14:04:26.052Z,77.91
2023-04-18T14:06:52.607Z,78.30
2023-04-18T14:09:19.062Z,77.82
2023-04-18T14:11:46.582Z,78.00
2023-04-18T14:14:12.975Z,78.28
2023-04-18T14:16:39.400Z,78.08
2023-04-18T14:19:05.812Z,78.02
2023-04-18T14:21:32.217Z,77.63
2023-04-18T14:23:58.707Z,77.53
2023-04-18T14:26:25.177Z,77.60
2023-04-18T14:28:51.579Z,76.63
2023-04-18T14:31:18.035Z,77.34
2023-04-18T14:33:44.725Z,76.52
2023-04-18T14:36:11.577Z,76.38
2023-04-18T14:38:38.048Z,75.83
2023-04-18T14:41:05.502Z,75.80
2023-04-18T14:43:32.270Z,75.69
2023-04-18T14:45:59.675Z,75.65
2023-04-18T14:48:26.687Z,74.56
2023-04-18T14:50:57.781Z,74.16
2023-04-18T14:53:24.757Z,75.08
2023-04-18T14:55:51.293Z,74.39
2023-04-18T14:58:17.700Z,74.78
2023-04-18T15:00:44.103Z,74.60
2023-04-18T15:03:11.511Z,74.77
2023-04-18T15:05:42.773Z,74.82
2023-04-18T15:08:10.993Z,75.36
2023-04-18T15:10:38.233Z,75.56
2023-04-18T15:13:04.680Z,75.90
2023-04-18T15:15:31.467Z,76.02
2023-04-18T15:17:57.950Z,76.12
2023-04-18T15:20:24.501Z,76.18
2023-04-18T15:22:50.969Z,74.99
2023-04-18T15:25:17.583Z,75.34
2023-04-18T15:27:43.981Z,75.31
2023-04-18T15:30:12.071Z,74.89
2023-04-18T15:32:41.975Z,75.14
2023-04-18T15:35:09.473Z,74.68
2023-04-18T15:37:36.688Z,74.48
2023-04-18T15:40:06.561Z,72.75
2023-04-18T15:42:33.596Z,72.90
2023-04-18T15:45:00.045Z,72.19
2023-04-18T15:47:27.077Z,72.45
2023-04-18T15:49:53.554Z,72.42
2023-04-18T15:52:20.003Z,71.65
2023-04-18T15:54:46.389Z,72.10
2023-04-18T15:57:12.855Z,72.04
2023-04-18T15:59:39.299Z,71.89
2023-04-18T16:02:08.084Z,72.47
2023-04-18T16:04:34.688Z,71.96
2023-04-18T16:07:01.301Z,71.46
2023-04-18T16:09:27.691Z,71.64
2023-04-18T16:11:54.220Z,71.15
2023-04-18T16:14:20.733Z,71.66
2023-04-18T16:16:47.158Z,71.81
2023-04-18T16:19:14.261Z,71.78
2023-04-18T16:21:40.725Z,71.65
2023-04-18T16:24:07.301Z,69.89
2023-04-18T16:26:34.759Z,69.95
2023-04-18T16:29:01.162Z,69.14
2023-04-18T16:31:27.605Z,69.73
2023-04-18T16:33:54.217Z,69.29
2023-04-18T16:36:20.648Z,69.37
2023-04-18T16:38:47.052Z,68.83
2023-04-18T16:41:13.459Z,68.62
2023-04-18T16:43:39.866Z,68.36
2023-04-18T16:46:06.404Z,67.93
2023-04-18T16:48:33.006Z,67.50
2023-04-18T16:50:59.404Z,66.76
2023-04-18T16:53:25.886Z,66.64
2023-04-18T16:55:53.147Z,66.02
2023-04-18T16:58:20.968Z,65.68
2023-04-18T17:00:47.629Z,65.24
2023-04-18T17:03:14.382Z,64.25
2023-04-18T17:05:41.029Z,63.27
2023-04-18T17:08:07.480Z,63.76
2023-04-18T17:10:34.352Z,63.75
2023-04-18T17:13:02.132Z,63.26
2023-04-18T17:15:29.061Z,63.18
2023-04-18T17:17:56.621Z,63.82
2023-04-18T17:20:23.790Z,64.25
2023-04-18T17:22:50.395Z,64.10
2023-04-18T17:25:17.155Z,64.73
2023-04-18T17:27:43.829Z,65.03
2023-04-18T17:30:11.075Z,65.28
2023-04-18T17:32:42.758Z,65.27
2023-04-18T17:35:09.785Z,65.63
2023-04-18T17:37:36.526Z,65.73
2023-04-18T17:40:06.728Z,66.16
2023-04-18T17:42:33.135Z,66.56
2023-04-18T17:45:02.189Z,66.68
2023-04-18T17:47:28.674Z,67.64
2023-04-18T17:49:55.177Z,67.81
2023-04-18T17:52:21.905Z,68.52
2023-04-18T17:54:48.303Z,68.62
2023-04-18T17:57:14.691Z,69.21
2023-04-18T17:59:41.160Z,69.39
2023-04-18T18:02:08.047Z,70.38
2023-04-18T18:04:34.728Z,70.46
2023-04-18T18:07:01.360Z,70.71
2023-04-18T18:09:27.736Z,70.63
2023-04-18T18:11:55.934Z,70.28
2023-04-18T18:14:22.988Z,71.67
2023-04-18T18:16:49.514Z,71.69
2023-04-18T18:19:16.535Z,72.47
2023-04-18T18:21:43.444Z,72.54
2023-04-18T18:24:10.717Z,72.68
2023-04-18T18:26:37.118Z,73.48
2023-04-18T18:29:09.069Z,73.71
2023-04-18T18:31:36.086Z,73.48
2023-04-18T18:34:02.564Z,74.03
2023-04-18T18:36:28.957Z,74.28
2023-04-18T18:38:55.416Z,74.10
2023-04-18T18:41:24.485Z,73.39
2023-04-18T18:43:51.387Z,72.57
2023-04-18T18:46:18.174Z,72.19
2023-04-18T18:48:44.816Z,72.16
2023-04-18T18:51:11.607Z,71.96
2023-04-18T18:53:40.361Z,71.38
2023-04-18T18:56:09.953Z,71.54
2023-04-18T18:58:36.366Z,71.68
2023-04-18T19:01:03.340Z,71.72
2023-04-18T19:03:29.935Z,72.11
2023-04-18T19:05:56.656Z,69.88
2023-04-18T19:08:23.081Z,70.50
2023-04-18T19:10:50.502Z,70.91
2023-04-18T19:13:18.732Z,70.06
2023-04-18T19:15:45.178Z,69.75
2023-04-18T19:18:12.394Z,69.23
2023-04-18T19:20:40.320Z,69.54
2023-04-18T19:23:06.821Z,69.40
2023-04-18T19:25:33.299Z,69.46
2023-04-18T19:27:59.689Z,69.80
2023-04-18T19:30:26.093Z,69.19
2023-04-18T19:32:52.603Z,69.05
2023-04-18T19:35:19.030Z,69.68
2023-04-18T19:37:45.424Z,68.61
2023-04-18T19:40:12.158Z,68.70
2023-04-18T19:42:38.562Z,69.12
2023-04-18T19:45:05.628Z,69.25
2023-04-18T19:47:33.819Z,69.75
2023-04-18T19:50:01.134Z,69.67
2023-04-18T19:52:27.595Z,69.65
2023-04-18T19:54:54.685Z,70.47
2023-04-18T19:57:21.116Z,70.17
2023-04-18T19:59:47.574Z,70.94
2023-04-18T20:02:13.974Z,70.73
2023-04-18T20:04:41.782Z,71.27
2023-04-18T20:07:08.245Z,71.17
2023-04-18T20:09:34.665Z,71.79
2023-04-18T20:12:01.826Z,72.78
2023-04-18T20:14:29.080Z,72.75
2023-04-18T20:16:56.115Z,73.31
2023-04-18T20:19:25.702Z,73.45
2023-04-18T20:22:02.888Z,73.86
2023-04-18T20:24:32.107Z,74.59
2023-04-18T20:26:59.507Z,74.97
2023-04-18T20:29:26.499Z,75.28
2023-04-18T20:31:52.884Z,74.91
2023-04-18T20:34:19.312Z,75.24
2023-04-18T20:36:46.471Z,75.71
2023-04-18T20:39:13.670Z,76.01
2023-04-18T20:41:46.391Z,76.39
2023-04-18T20:44:13.710Z,75.87
2023-04-18T20:46:41.142Z,76.99
2023-04-18T20:49:08.643Z,76.92
2023-04-18T20:51:36.984Z,76.53
2023-04-18T20:54:06.409Z,76.71
2023-04-18T20:56:33.687Z,77.52
2023-04-18T20:59:00.133Z,77.38
2023-04-18T21:01:26.612Z,77.83
2023-04-18T21:03:53.274Z,77.91
2023-04-18T21:06:21.945Z,78.38
2023-04-18T21:08:48.821Z,78.39
2023-04-18T21:11:15.323Z,78.79
2023-04-18T21:13:41.776Z,79.68
2023-04-18T21:16:10.098Z,79.62
2023-04-18T21:18:37.073Z,79.88
2023-04-18T21:21:04.318Z,81.40
2023-04-18T21:23:30.704Z,81.83
2023-04-18T21:25:57.125Z,81.68
2023-04-18T21:28:23.585Z,81.83
2023-04-18T21:30:49.970Z,82.11
2023-04-18T21:33:16.450Z,83.01
2023-04-18T21:35:42.853Z,82.75
2023-04-18T21:38:09.269Z,83.38
2023-04-18T21:40:37.314Z,84.28
2023-04-18T21:43:03.729Z,84.33
2023-04-18T21:45:30.364Z,84.45
2023-04-18T21:47:56.868Z,85.08
2023-04-18T21:50:23.296Z,84.56
2023-04-18T21:52:49.710Z,84.93
2023-04-18T21:55:17.575Z,85.21
2023-04-18T21:57:44.015Z,85.06
2023-04-18T22:00:11.155Z,85.13
2023-04-18T22:02:39.561Z,84.56
2023-04-18T22:05:09.091Z,84.30
2023-04-18T22:07:40.782Z,84.27
2023-04-18T22:10:13.361Z,84.10
2023-04-18T22:12:40.007Z,84.76
2023-04-18T22:15:06.703Z,85.73
2023-04-18T22:17:34.754Z,85.03
2023-04-18T22:20:01.159Z,85.07
2023-04-18T22:22:27.576Z,84.74
2023-04-18T22:24:54.009Z,85.03
2023-04-18T22:27:20.489Z,84.18
2023-04-18T22:29:46.863Z,84.06
2023-04-18T22:32:13.239Z,83.64
2023-04-18T22:34:39.623Z,83.36
2023-04-18T22:37:06.430Z,83.52
2023-04-18T22:39:32.834Z,82.94
2023-04-18T22:41:59.247Z,82.21
2023-04-18T22:44:25.640Z,82.76
2023-04-18T22:46:54.557Z,81.74
2023-04-18T22:49:22.124Z,81.18
2023-04-18T22:51:48.574Z,80.82
2023-04-18T22:54:15.258Z,81.18
2023-04-18T22:56:41.889Z,80.93
2023-04-18T22:59:08.288Z,80.90
2023-04-18T23:01:34.717Z,80.75
2023-04-18T23:04:01.478Z,80.49
2023-04-18T23:06:28.302Z,80.01
2023-04-18T23:08:54.696Z,79.94
2023-04-18T23:11:21.551Z,79.79
2023-04-18T23:13:47.952Z,79.24
2023-04-18T23:16:14.388Z,79.80
2023-04-18T23:18:40.895Z,79.33
2023-04-18T23:21:07.441Z,79.45
2023-04-18T23:23:33.838Z,79.03
2023-04-18T23:26:00.542Z,78.32
2023-04-18T23:28:26.963Z,78.38
2023-04-18T23:30:53.342Z,78.50
2023-04-18T23:33:19.764Z,78.59
2023-04-18T23:35:46.165Z,78.52
2023-04-18T23:38:12.683Z,78.23
2023-04-18T23:40:39.076Z,78.60
2023-04-18T23:43:05.914Z,78.20
2023-04-18T23:45:32.307Z,77.89
2023-04-18T23:47:58.794Z,77.76
2023-04-18T23:50:25.208Z,77.44
2023-04-18T23:52:51.601Z,77.83
2023-04-18T23:55:17.987Z,77.02
2023-04-18T23:57:44.420Z,76.75
